Updated29/06/2022 10:50 
 

GeoURL
free counters
Scottish Weather Network UK Weather Network Cumulus Top Weather Sites

Peebles Weather - Live Gauges

Raw Data, Raw Data Expanded


Daytime temperatures are in direct sunlight so may be higher than official air temperature values.
As with any other website, we log your IP address and browser type in the server logs for diagnostic reasons. Cookies are used to record visit time and gauges preferences. No personal information is stored or processed.

All times are in local time (GMT, or BST in summer) unless specified.

2022/06/29 09:20 EGPH 290920Z 08004KT 050V120 9999 VCSH FEW009 BKN031 15/14 Q1007
14.9°C 0.0 mm 0.3 mm 0.9 mm 3.6 mph 6.9 mph 1008.4 hPa 83% X-Ray Solar Flare Level
Planetary K-Index
Planetary K-Index History
Station Warn Rain Snow Flood Wind Ltng Heat Cold Glob Moon Temp Rain 1h Rain Wed Rain 24h Wind 10m Gust Pressure Hum Proton Levels

m New moon Cool F1-S F: A: Kp:0 SSN:0
Latitude  :   Sunrise    :   Moonrise    : Moon
Longitude :   Sunset  :   Moonset  :
Elevation  :   Day length :   Moon  :

Instrument view of current data at
Outside Temperature
Wind Chill
Heat Index
small
small
small
Dew Point
Outside Humidity
Rain today
small
small
small
Inside Temperature
Inside Humidity
Cloud Base
small
small
 Barometer
 Wind
analog
wind
Wind Compass Wind Gauge Wind Rose

 

Valid XHTML 1.1 Valid CSS! Page updated
© Sandaysoft 2008
Cumulus software v by Steve Loft